Time;durP1;ratioP1;P1;durP2;ratioP2;P2;SDS_P1;SDS_P2;PMS_P1;PMS_P2;Temp;Humidity;BMP_temperature;BMP_pressure;BME280_temperature;BME280_humidity;BME280_pressure;Samples;Min_cycle;Max_cycle;Signal;HPM_P1;HPM_P2
2023/03/02 00:00:36;;;;;;;33.03;18.50;;;2.80;99.90;;;;;;4987404;28;20257;-48
2023/03/02 00:03:04;;;;;;;25.47;17.37;;;2.80;99.90;;;;;;4992421;28;20734;-48
2023/03/02 00:05:32;;;;;;;29.63;17.17;;;2.70;99.90;;;;;;4994780;28;20205;-49
2023/03/02 00:08:00;;;;;;;25.97;16.73;;;2.70;99.90;;;;;;4994964;28;20225;-48
2023/03/02 00:10:28;;;;;;;26.97;17.17;;;2.70;99.90;;;;;;4992992;28;20201;-49
2023/03/02 00:12:55;;;;;;;26.80;17.43;;;2.60;99.90;;;;;;4994590;28;20660;-48
2023/03/02 00:15:22;;;;;;;24.53;16.57;;;2.60;99.90;;;;;;4994935;28;20206;-48
2023/03/02 00:17:49;;;;;;;26.30;16.63;;;2.60;99.90;;;;;;4994646;28;20233;-49
2023/03/02 00:20:16;;;;;;;28.30;16.93;;;2.50;99.90;;;;;;4989602;28;20268;-48
2023/03/02 00:22:47;;;;;;;27.80;18.80;;;2.50;99.90;;;;;;4992544;28;20193;-48
2023/03/02 00:25:15;;;;;;;30.77;19.03;;;2.50;99.90;;;;;;4994698;28;20300;-49
2023/03/02 00:27:47;;;;;;;29.87;18.43;;;2.40;99.90;;;;;;4994558;28;20225;-50
2023/03/02 00:30:15;;;;;;;32.37;18.83;;;2.40;99.90;;;;;;4993813;28;20630;-49
2023/03/02 00:32:46;;;;;;;28.93;18.53;;;2.40;99.90;;;;;;4993170;28;20245;-49
2023/03/02 00:35:13;;;;;;;30.07;18.83;;;2.30;99.90;;;;;;4994394;28;20198;-48
2023/03/02 00:37:43;;;;;;;32.53;19.83;;;2.30;99.90;;;;;;4994232;28;20225;-49
2023/03/02 00:40:11;;;;;;;34.63;19.50;;;2.30;99.90;;;;;;4992933;28;20213;-48
2023/03/02 00:42:38;;;;;;;30.23;17.97;;;2.30;99.90;;;;;;4991281;28;20202;-47
2023/03/02 00:45:08;;;;;;;34.03;19.00;;;2.20;99.90;;;;;;4991744;28;20754;-46
2023/03/02 00:47:36;;;;;;;32.17;18.47;;;2.20;99.90;;;;;;4993833;28;20662;-49
2023/03/02 00:50:04;;;;;;;27.77;16.70;;;2.10;99.90;;;;;;4993970;28;20208;-48
2023/03/02 00:52:49;;;;;;;29.60;19.07;;;2.00;99.90;;;;;;4994230;28;20201;-49
2023/03/02 00:55:17;;;;;;;26.80;16.17;;;1.90;99.90;;;;;;4987853;28;20627;-49
2023/03/02 00:57:53;;;;;;;31.57;18.17;;;1.80;99.90;;;;;;4993690;28;20268;-48
2023/03/02 01:00:22;;;;;;;25.33;16.47;;;1.70;99.90;;;;;;4993860;28;20205;-49
2023/03/02 01:02:49;;;;;;;27.77;15.77;;;1.60;99.90;;;;;;4992728;28;20244;-50
2023/03/02 01:05:17;;;;;;;32.17;17.33;;;1.60;99.90;;;;;;4994019;28;20256;-50
2023/03/02 01:07:46;;;;;;;26.00;16.33;;;1.60;99.90;;;;;;4992976;28;20296;-48
2023/03/02 01:10:14;;;;;;;31.53;18.47;;;1.50;99.90;;;;;;4993595;28;20272;-48
2023/03/02 01:12:41;;;;;;;33.60;19.50;;;1.40;99.90;;;;;;4992770;28;20272;-50
2023/03/02 01:15:09;;;;;;;30.73;17.37;;;1.40;99.90;;;;;;4993580;28;20196;-48
2023/03/02 01:17:38;;;;;;;29.67;16.80;;;1.30;99.90;;;;;;4993651;28;20320;-49
2023/03/02 01:20:08;;;;;;;29.97;18.47;;;1.30;99.90;;;;;;4992458;28;20237;-48
2023/03/02 01:22:35;;;;;;;29.00;18.40;;;1.20;99.90;;;;;;4992734;28;20206;-49
2023/03/02 01:25:02;;;;;;;31.87;18.10;;;1.20;99.90;;;;;;4993424;28;20782;-48
2023/03/02 01:27:29;;;;;;;30.40;17.33;;;1.20;99.90;;;;;;4993338;28;20280;-48
2023/03/02 01:29:55;;;;;;;31.37;17.43;;;1.20;99.90;;;;;;4993277;28;20208;-48
2023/03/02 01:32:22;;;;;;;32.87;18.10;;;1.20;99.90;;;;;;4989824;28;20196;-50
2023/03/02 01:34:51;;;;;;;27.43;17.43;;;1.10;99.90;;;;;;4993187;28;20253;-48
2023/03/02 01:37:19;;;;;;;29.23;17.37;;;1.10;99.90;;;;;;4992631;28;20229;-50
2023/03/02 01:39:46;;;;;;;29.93;17.73;;;1.10;99.90;;;;;;4992920;28;20296;-48
2023/03/02 01:42:13;;;;;;;29.77;17.57;;;1.20;99.90;;;;;;4992547;28;20255;-49
2023/03/02 01:44:42;;;;;;;29.87;17.40;;;1.20;99.90;;;;;;4992062;28;20811;-49
2023/03/02 01:47:17;;;;;;;33.93;18.27;;;1.40;99.90;;;;;;4992816;28;20196;-49
2023/03/02 01:49:49;;;;;;;31.73;17.27;;;1.40;99.90;;;;;;4992926;28;20283;-47
2023/03/02 01:52:18;;;;;;;32.07;18.80;;;1.30;99.90;;;;;;4991934;28;20204;-48
2023/03/02 01:54:48;;;;;;;30.47;17.50;;;1.30;99.90;;;;;;4991987;28;20204;-49
2023/03/02 01:57:20;;;;;;;32.80;16.87;;;1.30;99.90;;;;;;4992680;28;20268;-48
2023/03/02 01:59:50;;;;;;;29.93;16.53;;;1.20;99.90;;;;;;4992834;28;20258;-47
2023/03/02 02:02:17;;;;;;;31.47;17.87;;;1.20;99.90;;;;;;4992212;28;20212;-49
2023/03/02 02:04:46;;;;;;;27.17;17.13;;;1.30;99.90;;;;;;4992659;28;20198;-48
2023/03/02 02:07:13;;;;;;;27.57;16.30;;;1.30;99.90;;;;;;4991865;28;20198;-49
2023/03/02 02:09:45;;;;;;;31.43;17.17;;;1.20;99.90;;;;;;4992615;28;20201;-49
2023/03/02 02:12:14;;;;;;;32.93;17.43;;;1.20;99.90;;;;;;4992072;28;20208;-48
2023/03/02 02:14:41;;;;;;;29.00;15.47;;;1.20;99.90;;;;;;4992538;28;20207;-50
2023/03/02 02:17:09;;;;;;;29.43;17.23;;;1.20;99.90;;;;;;4991862;28;20290;-49
2023/03/02 02:19:44;;;;;;;27.10;16.47;;;1.20;99.90;;;;;;4991667;28;20231;-48
2023/03/02 02:22:15;;;;;;;28.20;15.50;;;1.10;99.90;;;;;;4992091;28;20208;-48
2023/03/02 02:24:49;;;;;;;29.97;17.80;;;1.10;99.90;;;;;;4992452;28;20267;-48
2023/03/02 02:27:17;;;;;;;31.37;17.90;;;1.10;99.90;;;;;;4992450;28;20201;-47
2023/03/02 02:29:48;;;;;;;25.63;15.03;;;1.10;99.90;;;;;;4992537;28;20212;-48
2023/03/02 02:32:17;;;;;;;29.87;15.47;;;1.10;99.90;;;;;;4990672;28;20205;-49
2023/03/02 02:34:49;;;;;;;32.40;17.90;;;1.10;99.90;;;;;;4992254;28;20331;-47
2023/03/02 02:37:21;;;;;;;28.43;15.80;;;1.10;99.90;;;;;;4992273;28;20267;-49
2023/03/02 02:39:49;;;;;;;29.60;16.20;;;1.10;99.90;;;;;;4991021;28;20209;-49
2023/03/02 02:42:21;;;;;;;29.90;16.43;;;1.10;99.90;;;;;;4992247;28;20200;-48
2023/03/02 02:44:48;;;;;;;31.13;16.83;;;1.10;99.90;;;;;;4986654;28;20251;-48
2023/03/02 02:47:17;;;;;;;33.13;18.37;;;1.10;99.90;;;;;;4992137;28;20198;-49
2023/03/02 02:49:46;;;;;;;31.90;15.77;;;1.00;99.90;;;;;;4994901;28;20211;-48
2023/03/02 02:52:17;;;;;;;31.43;18.17;;;1.00;99.90;;;;;;4996272;28;20204;-49
2023/03/02 02:54:46;;;;;;;29.43;17.97;;;1.00;99.90;;;;;;4996522;28;20259;-47
2023/03/02 02:57:16;;;;;;;29.43;17.63;;;1.10;99.90;;;;;;4995074;28;20251;-48
2023/03/02 02:59:48;;;;;;;35.17;19.53;;;1.20;99.90;;;;;;4995587;28;20232;-47
2023/03/02 03:02:19;;;;;;;30.17;16.10;;;1.20;99.90;;;;;;4993512;28;20619;-47
2023/03/02 03:04:47;;;;;;;30.67;16.77;;;1.10;99.90;;;;;;4996437;28;20299;-48
2023/03/02 03:07:19;;;;;;;27.73;17.57;;;1.00;99.90;;;;;;4994628;28;20201;-48
2023/03/02 03:09:52;;;;;;;29.53;17.50;;;1.00;99.90;;;;;;4994021;28;20210;-48
2023/03/02 03:12:23;;;;;;;32.43;16.90;;;1.00;99.90;;;;;;4995892;28;20210;-48
2023/03/02 03:14:51;;;;;;;32.80;17.50;;;0.90;99.90;;;;;;4995909;28;20204;-50
2023/03/02 03:17:18;;;;;;;25.67;15.00;;;0.90;99.90;;;;;;4995969;28;20248;-48
2023/03/02 03:19:47;;;;;;;29.03;18.03;;;0.90;99.90;;;;;;4994363;28;20236;-49
2023/03/02 03:22:15;;;;;;;35.20;18.40;;;0.90;99.90;;;;;;4995505;28;20196;-48
2023/03/02 03:24:44;;;;;;;31.40;17.67;;;0.90;99.90;;;;;;4995713;28;20756;-48
2023/03/02 03:27:14;;;;;;;32.23;18.27;;;0.80;99.90;;;;;;4995684;28;20200;-49
2023/03/02 03:29:45;;;;;;;32.10;18.47;;;0.80;99.90;;;;;;4995053;28;20555;-49
2023/03/02 03:32:14;;;;;;;31.97;17.37;;;0.70;99.90;;;;;;4994537;28;20292;-49
2023/03/02 03:34:41;;;;;;;35.50;18.10;;;0.70;99.90;;;;;;4995457;28;20196;-48
2023/03/02 03:37:09;;;;;;;26.40;17.07;;;0.70;99.90;;;;;;4995553;28;20213;-48
2023/03/02 03:39:36;;;;;;;31.63;17.80;;;0.60;99.90;;;;;;4994340;28;20279;-48
2023/03/02 03:42:03;;;;;;;30.73;18.50;;;0.60;99.90;;;;;;4995323;28;20275;-47
2023/03/02 03:44:30;;;;;;;30.17;17.87;;;0.60;99.90;;;;;;4992560;28;20200;-49
2023/03/02 03:46:57;;;;;;;32.20;16.63;;;0.60;99.90;;;;;;4994965;28;20207;-49
2023/03/02 03:49:26;;;;;;;32.77;17.10;;;0.60;99.90;;;;;;4993739;28;20793;-49
2023/03/02 03:51:53;;;;;;;32.17;17.53;;;0.60;99.90;;;;;;4994957;28;20206;-47
2023/03/02 03:54:21;;;;;;;28.37;16.80;;;0.60;99.90;;;;;;4995412;28;20202;-48
2023/03/02 03:56:50;;;;;;;29.77;15.20;;;0.60;99.90;;;;;;4995356;28;20209;-48
2023/03/02 03:59:19;;;;;;;28.20;17.80;;;0.60;99.90;;;;;;4991940;28;20751;-49
2023/03/02 04:01:48;;;;;;;35.80;18.27;;;0.50;99.90;;;;;;4994879;28;20204;-49
2023/03/02 04:04:19;;;;;;;28.40;17.43;;;0.50;99.90;;;;;;4995002;28;20214;-48
2023/03/02 04:06:47;;;;;;;30.93;17.83;;;0.50;99.90;;;;;;4993586;28;20208;-49
2023/03/02 04:09:15;;;;;;;31.23;17.20;;;0.50;99.90;;;;;;4993094;28;20222;-48
2023/03/02 04:11:44;;;;;;;34.27;17.57;;;0.50;99.90;;;;;;4994455;28;20555;-48
2023/03/02 04:14:11;;;;;;;28.27;16.93;;;0.50;99.90;;;;;;4995167;28;20216;-48
2023/03/02 04:16:39;;;;;;;37.60;19.27;;;0.50;99.90;;;;;;4994762;28;20276;-48
2023/03/02 04:19:08;;;;;;;34.77;18.27;;;0.50;99.90;;;;;;4994110;28;20283;-49
2023/03/02 04:21:35;;;;;;;31.40;17.87;;;0.50;99.90;;;;;;4993631;28;20247;-48
2023/03/02 04:24:04;;;;;;;30.33;17.20;;;0.40;99.90;;;;;;4994931;28;20200;-49
2023/03/02 04:26:31;;;;;;;31.23;18.97;;;0.40;99.90;;;;;;4994706;28;20208;-48
2023/03/02 04:28:58;;;;;;;34.27;18.30;;;0.40;99.90;;;;;;4993845;28;20219;-48
2023/03/02 04:31:25;;;;;;;32.00;17.97;;;0.40;99.90;;;;;;4993903;28;20250;-47
2023/03/02 04:33:52;;;;;;;31.37;18.20;;;0.40;99.90;;;;;;4993498;28;20685;-48
2023/03/02 04:36:20;;;;;;;30.67;18.63;;;0.40;99.90;;;;;;4994392;28;20816;-49
2023/03/02 04:38:47;;;;;;;38.33;20.03;;;0.40;99.90;;;;;;4993929;28;20281;-49
2023/03/02 04:41:15;;;;;;;29.97;17.13;;;0.30;99.90;;;;;;4993846;28;20203;-47
2023/03/02 04:43:43;;;;;;;32.77;18.73;;;0.30;99.90;;;;;;4994335;28;20753;-48
2023/03/02 04:46:13;;;;;;;35.13;19.87;;;0.20;99.90;;;;;;4992243;28;20701;-47
2023/03/02 04:48:40;;;;;;;30.40;17.37;;;0.20;99.90;;;;;;4993156;28;20344;-49
2023/03/02 04:51:08;;;;;;;31.37;18.27;;;0.20;99.90;;;;;;4993890;28;20678;-47
2023/03/02 04:53:35;;;;;;;35.03;19.47;;;0.20;99.90;;;;;;4994049;28;20212;-48
2023/03/02 04:56:02;;;;;;;28.83;17.10;;;0.20;99.90;;;;;;4994058;28;20205;-49
2023/03/02 04:58:31;;;;;;;34.67;18.53;;;0.20;99.90;;;;;;4992733;28;20267;-48
2023/03/02 05:01:01;;;;;;;31.50;17.33;;;0.20;99.90;;;;;;4985712;28;20251;-48
2023/03/02 05:03:28;;;;;;;33.90;19.17;;;0.20;99.90;;;;;;4994204;28;20250;-48
2023/03/02 05:05:56;;;;;;;33.63;18.40;;;0.20;99.90;;;;;;4994093;28;20667;-49
2023/03/02 05:08:23;;;;;;;37.07;19.67;;;0.10;99.90;;;;;;4991770;28;20275;-49
2023/03/02 05:10:51;;;;;;;32.73;17.23;;;0.10;99.90;;;;;;4992360;28;20213;-48
2023/03/02 05:13:18;;;;;;;33.23;17.80;;;0.00;99.90;;;;;;4993898;28;20205;-49
2023/03/02 05:15:46;;;;;;;38.23;20.60;;;0.00;99.90;;;;;;4993730;28;20214;-48
2023/03/02 05:18:13;;;;;;;34.27;17.77;;;0.00;99.90;;;;;;4993495;28;20794;-48
2023/03/02 05:20:40;;;;;;;37.80;19.57;;;0.00;99.90;;;;;;4991662;28;20200;-48
2023/03/02 05:23:22;;;;;;;32.23;18.47;;;0.00;99.90;;;;;;4993439;28;20250;-48
2023/03/02 05:25:49;;;;;;;35.20;18.47;;;0.00;99.90;;;;;;4993478;28;20676;-48
2023/03/02 05:28:16;;;;;;;31.40;17.17;;;-0.10;99.90;;;;;;4992411;28;20215;-50
2023/03/02 05:30:43;;;;;;;33.60;17.93;;;-0.10;99.90;;;;;;4992363;28;20619;-49
2023/03/02 05:33:12;;;;;;;29.70;17.90;;;-0.10;99.90;;;;;;4992320;28;20205;-48
2023/03/02 05:35:39;;;;;;;37.57;18.97;;;-0.20;99.90;;;;;;4993281;28;20556;-48
2023/03/02 05:38:06;;;;;;;37.87;19.97;;;-0.10;99.90;;;;;;4990189;28;20272;-48
2023/03/02 05:40:34;;;;;;;33.43;19.13;;;-0.20;99.90;;;;;;4988853;28;20208;-48
2023/03/02 05:43:01;;;;;;;36.47;19.77;;;-0.20;99.90;;;;;;4992575;28;20574;-48
2023/03/02 05:45:30;;;;;;;29.90;17.47;;;-0.20;99.90;;;;;;4987337;28;20200;-48
2023/03/02 05:47:57;;;;;;;32.33;19.47;;;-0.20;99.90;;;;;;4993544;28;20280;-48
2023/03/02 05:50:26;;;;;;;35.60;19.27;;;-0.20;99.90;;;;;;4993299;28;20211;-47
2023/03/02 05:52:53;;;;;;;41.73;22.00;;;-0.20;99.90;;;;;;4992745;28;20201;-49
2023/03/02 05:55:21;;;;;;;42.20;20.87;;;-0.20;99.90;;;;;;4990192;28;20200;-48
2023/03/02 05:57:49;;;;;;;35.37;19.43;;;-0.20;99.90;;;;;;4992517;28;20220;-48
2023/03/02 06:00:17;;;;;;;37.03;20.23;;;-0.20;99.90;;;;;;4990583;28;20305;-48
2023/03/02 06:02:45;;;;;;;30.83;18.33;;;-0.20;99.90;;;;;;4992098;28;20200;-47
2023/03/02 06:05:15;;;;;;;34.13;19.13;;;-0.20;99.90;;;;;;4992238;28;20215;-47
2023/03/02 06:07:46;;;;;;;37.10;21.93;;;-0.20;99.90;;;;;;5003609;28;20643;-48
2023/03/02 06:10:14;;;;;;;41.40;23.47;;;-0.10;99.90;;;;;;5012196;28;20273;-48
2023/03/02 06:12:41;;;;;;;40.63;25.17;;;-0.10;99.90;;;;;;5012171;28;20736;-47
2023/03/02 06:15:09;;;;;;;39.63;23.30;;;-0.10;99.90;;;;;;5012086;28;20269;-47
2023/03/02 06:17:36;;;;;;;39.03;21.80;;;0.00;99.90;;;;;;5002620;28;20732;-48
2023/03/02 06:20:09;;;;;;;34.60;21.60;;;0.00;99.90;;;;;;4989061;28;20231;-47
2023/03/02 06:22:37;;;;;;;40.63;22.37;;;-0.10;99.90;;;;;;4992243;28;20203;-48
2023/03/02 06:25:07;;;;;;;42.53;22.40;;;-0.10;99.90;;;;;;4992526;28;20208;-48
2023/03/02 06:27:34;;;;;;;46.43;25.87;;;0.00;99.90;;;;;;4992495;28;20200;-49
2023/03/02 06:30:01;;;;;;;43.23;24.13;;;0.00;99.90;;;;;;4992436;28;20247;-48
2023/03/02 06:32:32;;;;;;;49.70;25.77;;;0.00;99.90;;;;;;4989577;28;20256;-50
2023/03/02 06:35:00;;;;;;;42.90;25.07;;;0.10;99.90;;;;;;4980983;28;20204;-49
2023/03/02 06:37:28;;;;;;;42.40;23.87;;;0.10;99.90;;;;;;4990076;28;20627;-48
2023/03/02 06:39:56;;;;;;;47.10;27.10;;;0.20;99.90;;;;;;4992155;28;20225;-50
2023/03/02 06:42:26;;;;;;;38.47;22.73;;;0.30;99.90;;;;;;4990146;28;20871;-49
2023/03/02 06:44:53;;;;;;;45.10;25.50;;;0.40;99.90;;;;;;4992536;28;20270;-48
2023/03/02 06:47:21;;;;;;;38.57;22.50;;;0.50;99.90;;;;;;4990556;28;20249;-48
2023/03/02 06:49:49;;;;;;;40.60;23.27;;;0.60;99.90;;;;;;4989959;28;20207;-47
2023/03/02 06:52:16;;;;;;;40.87;24.57;;;0.70;99.90;;;;;;4988607;28;20207;-47
2023/03/02 06:54:43;;;;;;;39.50;23.83;;;0.90;99.90;;;;;;4991772;28;20203;-48
2023/03/02 06:57:10;;;;;;;39.33;22.97;;;1.10;99.90;;;;;;4992206;28;20253;-49
2023/03/02 06:59:38;;;;;;;45.13;24.13;;;1.30;99.90;;;;;;4992131;28;20232;-48
2023/03/02 07:02:06;;;;;;;44.43;24.93;;;1.60;99.90;;;;;;4989004;28;20204;-49
2023/03/02 07:04:33;;;;;;;40.17;23.53;;;1.80;99.90;;;;;;4991344;28;20201;-47
2023/03/02 07:07:00;;;;;;;40.97;25.57;;;2.10;99.90;;;;;;4990654;28;20207;-49
2023/03/02 07:09:29;;;;;;;49.63;25.80;;;2.20;99.90;;;;;;4986665;28;20285;-49
2023/03/02 07:11:56;;;;;;;41.70;24.97;;;2.30;99.90;;;;;;4990885;28;20284;-48
2023/03/02 07:14:23;;;;;;;47.17;26.70;;;2.50;99.90;;;;;;4987899;28;20272;-49
2023/03/02 07:16:52;;;;;;;40.33;24.43;;;2.60;99.90;;;;;;4988054;28;20221;-49
2023/03/02 07:19:19;;;;;;;42.80;25.37;;;2.70;99.90;;;;;;4990599;28;20221;-48
2023/03/02 07:21:46;;;;;;;47.37;26.83;;;2.80;99.90;;;;;;4991675;28;20202;-49
2023/03/02 07:24:13;;;;;;;45.47;27.43;;;2.70;99.90;;;;;;4981323;28;20252;-48
2023/03/02 07:26:40;;;;;;;47.17;29.37;;;2.70;99.90;;;;;;4992614;28;20202;-48
2023/03/02 07:29:07;;;;;;;46.60;27.13;;;2.60;99.90;;;;;;4990349;28;20217;-48
2023/03/02 07:31:34;;;;;;;46.37;27.60;;;2.70;99.90;;;;;;4983234;28;20213;-48
2023/03/02 07:34:02;;;;;;;37.73;25.03;;;2.80;99.90;;;;;;4984450;28;20260;-47
2023/03/02 07:36:29;;;;;;;49.37;28.80;;;2.90;99.90;;;;;;4990375;28;20205;-48
2023/03/02 07:38:56;;;;;;;46.10;26.73;;;3.00;99.90;;;;;;4993763;28;20320;-49
2023/03/02 07:41:24;;;;;;;45.93;26.63;;;3.10;99.90;;;;;;4993240;28;20704;-49
2023/03/02 07:43:51;;;;;;;40.17;24.13;;;3.20;99.90;;;;;;4994403;28;20212;-49
2023/03/02 07:46:18;;;;;;;37.03;23.50;;;3.30;99.90;;;;;;4988167;28;20715;-47
2023/03/02 07:48:45;;;;;;;39.50;21.57;;;3.60;99.90;;;;;;4990544;28;20241;-50
2023/03/02 07:51:13;;;;;;;40.33;23.57;;;3.80;99.90;;;;;;4994046;28;20204;-48
2023/03/02 07:53:40;;;;;;;38.33;23.43;;;4.10;99.90;;;;;;4995182;28;20280;-49
2023/03/02 07:56:08;;;;;;;34.33;21.63;;;4.20;99.90;;;;;;4993726;28;20557;-48
2023/03/02 07:58:35;;;;;;;36.17;22.57;;;4.60;99.90;;;;;;4995114;28;20275;-49
2023/03/02 08:01:04;;;;;;;38.50;23.73;;;4.90;99.90;;;;;;4994874;28;20203;-49
2023/03/02 08:03:31;;;;;;;38.17;22.00;;;5.10;99.90;;;;;;4995152;28;20205;-48
2023/03/02 08:05:58;;;;;;;38.50;22.70;;;5.50;99.90;;;;;;4995178;28;20206;-48
2023/03/02 08:08:26;;;;;;;43.23;23.53;;;5.70;99.90;;;;;;4995067;28;20292;-49
2023/03/02 08:10:53;;;;;;;37.23;22.47;;;6.20;99.90;;;;;;4993934;28;20205;-49
2023/03/02 08:13:20;;;;;;;33.67;22.03;;;6.50;99.90;;;;;;4994835;28;20207;-47
2023/03/02 08:15:47;;;;;;;34.80;20.20;;;6.40;99.90;;;;;;4994854;28;20210;-48
2023/03/02 08:18:14;;;;;;;30.87;20.30;;;6.60;99.90;;;;;;4996670;28;20236;-48
2023/03/02 08:20:41;;;;;;;30.87;18.47;;;6.60;99.90;;;;;;4996964;28;20225;-49
2023/03/02 08:23:08;;;;;;;30.17;19.60;;;6.10;99.90;;;;;;4994754;28;20218;-50
2023/03/02 08:25:37;;;;;;;34.10;21.87;;;5.80;99.90;;;;;;4994648;28;20275;-49
2023/03/02 08:28:04;;;;;;;31.67;20.73;;;5.40;99.90;;;;;;4993550;28;20224;-48
2023/03/02 08:30:31;;;;;;;31.10;20.17;;;5.40;99.90;;;;;;4994473;28;20202;-48
2023/03/02 08:32:58;;;;;;;32.47;22.13;;;5.20;99.90;;;;;;4994502;28;20210;-48
2023/03/02 08:35:25;;;;;;;33.43;20.97;;;5.20;99.90;;;;;;4994392;28;20207;-50
2023/03/02 08:37:53;;;;;;;29.83;19.27;;;5.40;99.90;;;;;;4994433;28;20224;-48
2023/03/02 08:40:20;;;;;;;36.67;20.60;;;5.50;99.90;;;;;;4994245;28;20310;-48
2023/03/02 08:42:55;;;;;;;32.20;20.43;;;5.50;99.90;;;;;;4993424;28;20222;-48
2023/03/02 08:45:22;;;;;;;28.40;19.23;;;5.90;99.90;;;;;;4994019;28;20202;-49
2023/03/02 08:47:50;;;;;;;30.77;19.07;;;6.00;99.90;;;;;;4994110;28;20241;-48
2023/03/02 08:50:17;;;;;;;30.53;19.73;;;6.00;99.90;;;;;;4994231;28;20202;-48
2023/03/02 08:52:46;;;;;;;33.70;19.60;;;6.10;99.90;;;;;;4994165;28;20210;-48
2023/03/02 08:55:13;;;;;;;28.93;17.40;;;6.30;99.90;;;;;;4994080;28;20206;-48
2023/03/02 08:57:41;;;;;;;33.30;19.70;;;6.60;99.90;;;;;;4993911;28;20742;-48
2023/03/02 09:00:13;;;;;;;33.67;19.30;;;6.70;99.90;;;;;;4991989;28;20224;-48
2023/03/02 09:02:44;;;;;;;30.17;20.03;;;6.70;99.90;;;;;;4993695;28;20706;-48
2023/03/02 09:05:11;;;;;;;31.10;20.40;;;7.00;99.90;;;;;;4993859;28;20207;-49
2023/03/02 09:07:38;;;;;;;30.20;19.00;;;7.10;99.90;;;;;;4993779;28;20292;-49
2023/03/02 09:10:06;;;;;;;34.03;19.67;;;7.10;99.90;;;;;;4993729;28;20261;-48
2023/03/02 09:12:33;;;;;;;35.87;21.57;;;7.20;99.90;;;;;;4993383;28;20267;-49
2023/03/02 09:14:59;;;;;;;32.67;21.33;;;7.40;99.90;;;;;;4993849;28;20266;-48
2023/03/02 09:17:28;;;;;;;35.43;19.33;;;7.80;99.90;;;;;;4992302;28;20206;-49
2023/03/02 09:19:55;;;;;;;31.23;21.47;;;8.00;99.90;;;;;;4993320;28;20274;-48
2023/03/02 09:22:22;;;;;;;30.40;20.23;;;8.00;99.90;;;;;;4993214;28;20252;-48
2023/03/02 09:24:49;;;;;;;32.50;19.67;;;8.10;99.90;;;;;;4993202;28;20201;-50
2023/03/02 09:27:16;;;;;;;33.67;20.50;;;8.30;99.90;;;;;;4993333;28;20259;-48
2023/03/02 09:29:43;;;;;;;30.13;19.37;;;8.40;99.90;;;;;;4992636;28;20200;-49
2023/03/02 09:32:10;;;;;;;34.57;20.97;;;8.50;99.90;;;;;;4993227;28;20204;-48
2023/03/02 09:34:38;;;;;;;33.70;21.23;;;8.40;99.90;;;;;;4993464;28;20203;-50
2023/03/02 09:37:05;;;;;;;34.17;20.70;;;8.20;99.90;;;;;;4993188;28;20683;-48
2023/03/02 09:39:32;;;;;;;31.60;20.40;;;8.00;99.90;;;;;;4991799;28;20229;-49
2023/03/02 09:42:18;;;;;;;30.53;20.03;;;8.10;99.90;;;;;;4992476;28;20640;-48
2023/03/02 09:45:14;;;;;;;32.17;19.97;;;8.30;99.90;;;;;;4990629;28;20201;-48
2023/03/02 09:47:50;;;;;;;31.37;21.07;;;8.20;99.90;;;;;;4971701;28;20299;-49
2023/03/02 09:50:29;;;;;;;34.13;20.57;;;8.20;99.90;;;;;;4993141;28;20574;-48
2023/03/02 09:53:22;;;;;;;31.87;19.23;;;7.90;99.90;;;;;;4994707;28;20715;-50
2023/03/02 09:55:53;;;;;;;36.00;22.23;;;7.50;99.90;;;;;;4995713;28;20205;-49
2023/03/02 09:58:24;;;;;;;32.07;20.73;;;7.80;99.90;;;;;;4991633;28;20284;-48
2023/03/02 10:00:51;;;;;;;39.17;20.97;;;7.80;99.90;;;;;;4991572;28;20314;-48
2023/03/02 10:03:21;;;;;;;34.50;21.90;;;7.90;99.90;;;;;;4991910;28;20331;-48
2023/03/02 10:05:52;;;;;;;31.30;18.93;;;7.80;99.90;;;;;;4992676;28;20197;-48
2023/03/02 10:08:22;;;;;;;36.23;21.10;;;7.60;99.90;;;;;;4992653;28;20600;-50
2023/03/02 10:11:02;;;;;;;33.43;20.90;;;7.40;99.90;;;;;;4992418;28;20285;-48
2023/03/02 10:13:33;;;;;;;35.50;21.70;;;6.80;99.90;;;;;;4991573;28;20202;-48
2023/03/02 10:16:12;;;;;;;34.33;20.63;;;6.40;99.90;;;;;;4990599;28;20197;-49
2023/03/02 10:18:44;;;;;;;38.23;22.67;;;6.00;99.90;;;;;;4992493;28;20792;-49
2023/03/02 10:21:22;;;;;;;35.57;21.47;;;6.20;99.90;;;;;;4992022;28;20293;-49
2023/03/02 10:23:55;;;;;;;39.40;21.57;;;6.40;99.90;;;;;;4990910;28;20207;-48
2023/03/02 10:26:29;;;;;;;42.30;23.00;;;6.40;99.90;;;;;;4994011;28;20207;-49
2023/03/02 10:29:02;;;;;;;39.93;24.07;;;6.30;99.90;;;;;;4996923;28;20220;-48
2023/03/02 10:31:31;;;;;;;42.80;22.43;;;6.40;99.90;;;;;;5007026;28;20213;-47
2023/03/02 10:33:59;;;;;;;35.87;21.87;;;6.60;99.90;;;;;;4973192;28;20203;-49
2023/03/02 10:36:29;;;;;;;34.80;21.30;;;6.90;99.90;;;;;;4993418;28;20210;-50
2023/03/02 10:38:59;;;;;;;34.63;20.60;;;7.10;99.90;;;;;;4991391;28;20642;-48
2023/03/02 10:41:30;;;;;;;37.87;22.60;;;7.10;99.90;;;;;;4991860;28;20227;-48
2023/03/02 10:44:01;;;;;;;39.27;22.10;;;7.10;99.90;;;;;;4990093;28;20253;-49
2023/03/02 10:46:40;;;;;;;40.43;24.67;;;7.20;99.90;;;;;;4989702;28;20295;-49
2023/03/02 10:49:24;;;;;;;34.63;20.87;;;7.30;99.90;;;;;;4983801;28;20233;-48
2023/03/02 10:51:58;;;;;;;37.83;22.07;;;7.00;99.90;;;;;;4991130;28;20785;-48
2023/03/02 10:54:27;;;;;;;40.13;23.67;;;7.10;99.90;;;;;;4989864;28;20252;-49
2023/03/02 10:56:58;;;;;;;39.97;22.00;;;7.00;99.90;;;;;;4986391;28;20240;-48
2023/03/02 10:59:43;;;;;;;35.90;22.17;;;6.60;99.90;;;;;;4991244;28;20218;-48
2023/03/02 11:02:17;;;;;;;39.80;23.07;;;6.60;99.90;;;;;;4991874;28;20259;-48
2023/03/02 11:04:45;;;;;;;43.00;25.13;;;6.60;99.90;;;;;;4992735;28;20598;-48
2023/03/02 11:07:17;;;;;;;41.43;23.40;;;6.80;99.90;;;;;;4992525;28;20214;-49
2023/03/02 11:09:55;;;;;;;41.50;23.63;;;6.70;99.90;;;;;;4993202;28;20613;-50
2023/03/02 11:12:22;;;;;;;43.37;23.13;;;6.70;99.90;;;;;;4996157;28;20715;-48
2023/03/02 11:14:49;;;;;;;41.40;24.90;;;6.80;99.90;;;;;;4995688;28;20738;-48
2023/03/02 11:17:32;;;;;;;41.23;23.67;;;6.60;99.90;;;;;;4995916;28;20672;-49
2023/03/02 11:20:01;;;;;;;47.53;25.27;;;6.20;99.90;;;;;;4993448;28;20640;-47
2023/03/02 11:22:36;;;;;;;39.10;23.00;;;6.10;99.90;;;;;;4990915;28;20225;-49
2023/03/02 11:25:08;;;;;;;49.23;24.50;;;6.00;99.90;;;;;;4988382;28;20248;-48
2023/03/02 11:27:39;;;;;;;42.93;25.93;;;6.10;99.90;;;;;;4995674;28;20281;-48
2023/03/02 11:30:15;;;;;;;39.70;23.23;;;6.10;99.90;;;;;;4993041;28;20195;-49
2023/03/02 11:33:04;;;;;;;41.43;23.87;;;6.10;99.90;;;;;;4999332;28;20206;-48
2023/03/02 11:35:36;;;;;;;45.17;24.20;;;6.10;99.90;;;;;;4992490;28;20205;-48
2023/03/02 11:38:17;;;;;;;40.67;22.83;;;6.20;99.90;;;;;;4988061;28;20294;-49
2023/03/02 11:40:47;;;;;;;39.07;21.40;;;6.30;99.90;;;;;;4993189;28;20230;-48
2023/03/02 11:43:15;;;;;;;42.90;23.90;;;6.40;99.90;;;;;;4995319;28;20270;-48
2023/03/02 11:45:45;;;;;;;49.47;25.37;;;6.40;99.90;;;;;;4996245;28;20616;-50
2023/03/02 11:48:21;;;;;;;41.43;22.97;;;6.20;99.90;;;;;;5004443;28;20223;-48
2023/03/02 11:50:55;;;;;;;45.03;23.90;;;6.00;99.90;;;;;;4991944;28;20213;-48
2023/03/02 11:53:26;;;;;;;42.63;23.53;;;5.90;99.90;;;;;;4997829;28;20205;-50
2023/03/02 11:55:53;;;;;;;42.47;22.43;;;6.00;99.90;;;;;;4989527;28;20669;-49
2023/03/02 11:58:23;;;;;;;46.10;24.43;;;6.10;99.90;;;;;;4994583;28;20261;-49
2023/03/02 12:00:52;;;;;;;64.10;26.90;;;6.20;99.90;;;;;;4994314;28;20225;-48
2023/03/02 12:03:36;;;;;;;49.80;25.23;;;6.10;99.90;;;;;;4993969;28;20198;-48
2023/03/02 12:06:06;;;;;;;46.40;24.40;;;6.10;99.90;;;;;;4987729;28;20224;-49
2023/03/02 12:08:39;;;;;;;46.90;25.03;;;6.00;99.90;;;;;;4992932;28;20226;-50
2023/03/02 12:11:09;;;;;;;57.17;27.27;;;6.00;99.90;;;;;;4994689;28;20273;-48
2023/03/02 12:13:38;;;;;;;44.27;25.27;;;5.90;99.90;;;;;;4994596;28;20206;-48
2023/03/02 12:16:18;;;;;;;49.40;25.03;;;5.80;99.90;;;;;;4994911;28;20263;-49
2023/03/02 12:18:47;;;;;;;48.37;26.97;;;5.90;99.90;;;;;;4993307;28;20229;-49
2023/03/02 12:21:17;;;;;;;46.47;25.17;;;5.70;99.90;;;;;;4993827;28;20273;-49
2023/03/02 12:24:02;;;;;;;40.73;23.30;;;5.60;99.90;;;;;;4994611;28;20253;-47
2023/03/02 12:26:35;;;;;;;44.03;24.60;;;5.70;99.90;;;;;;4994784;28;20245;-49
2023/03/02 12:29:05;;;;;;;45.03;24.37;;;5.50;99.90;;;;;;4994566;28;20225;-49
2023/03/02 12:31:44;;;;;;;40.07;22.57;;;5.50;99.90;;;;;;4994212;28;20198;-48
2023/03/02 12:34:33;;;;;;;48.53;25.63;;;5.50;99.90;;;;;;4992829;28;20254;-50
2023/03/02 12:37:04;;;;;;;49.00;26.87;;;5.60;99.90;;;;;;4986644;28;20206;-48
2023/03/02 12:39:55;;;;;;;48.63;24.67;;;5.80;99.90;;;;;;4994549;28;20229;-48
2023/03/02 12:42:48;;;;;;;42.83;23.73;;;5.70;99.90;;;;;;4994208;28;20219;-48
2023/03/02 12:45:27;;;;;;;47.70;24.63;;;5.70;99.90;;;;;;4975194;28;20195;-50
2023/03/02 12:48:02;;;;;;;52.63;28.73;;;5.70;99.90;;;;;;4975036;28;20233;-48